sensor_id;sensor_type;location;lat;lon;timestamp;temperature;humidity
25708;DHT22;13567;61.652;17.100;2022-10-30T00:00:44;5.50;99.90
25708;DHT22;13567;61.652;17.100;2022-10-30T00:03:12;5.50;99.90
25708;DHT22;13567;61.652;17.100;2022-10-30T00:05:42;5.60;99.90
25708;DHT22;13567;61.652;17.100;2022-10-30T00:08:11;5.60;99.90
25708;DHT22;13567;61.652;17.100;2022-10-30T00:10:39;5.70;99.90
25708;DHT22;13567;61.652;17.100;2022-10-30T00:13:06;5.70;99.90
25708;DHT22;13567;61.652;17.100;2022-10-30T00:15:34;5.80;99.90
25708;DHT22;13567;61.652;17.100;2022-10-30T00:18:01;5.80;99.90
25708;DHT22;13567;61.652;17.100;2022-10-30T00:20:31;5.90;99.90
25708;DHT22;13567;61.652;17.100;2022-10-30T00:22:58;5.90;99.90
25708;DHT22;13567;61.652;17.100;2022-10-30T00:25:26;5.80;99.90
25708;DHT22;13567;61.652;17.100;2022-10-30T00:27:53;5.80;99.90
25708;DHT22;13567;61.652;17.100;2022-10-30T00:30:20;5.90;99.90
25708;DHT22;13567;61.652;17.100;2022-10-30T00:32:47;5.90;99.90
25708;DHT22;13567;61.652;17.100;2022-10-30T00:35:14;5.90;99.90
25708;DHT22;13567;61.652;17.100;2022-10-30T00:37:41;6.00;99.90
25708;DHT22;13567;61.652;17.100;2022-10-30T00:40:17;5.90;99.90
25708;DHT22;13567;61.652;17.100;2022-10-30T00:42:44;5.90;99.90
25708;DHT22;13567;61.652;17.100;2022-10-30T00:45:13;6.00;99.90
25708;DHT22;13567;61.652;17.100;2022-10-30T00:48:10;6.00;99.90
25708;DHT22;13567;61.652;17.100;2022-10-30T00:50:37;6.00;99.90
25708;DHT22;13567;61.652;17.100;2022-10-30T00:53:08;6.00;99.90
25708;DHT22;13567;61.652;17.100;2022-10-30T00:55:41;6.00;99.90
25708;DHT22;13567;61.652;17.100;2022-10-30T00:58:12;5.90;99.90
25708;DHT22;13567;61.652;17.100;2022-10-30T01:00:43;5.90;99.90
25708;DHT22;13567;61.652;17.100;2022-10-30T01:03:12;5.90;99.90
25708;DHT22;13567;61.652;17.100;2022-10-30T01:05:42;6.00;99.90
25708;DHT22;13567;61.652;17.100;2022-10-30T01:08:11;6.00;99.90
25708;DHT22;13567;61.652;17.100;2022-10-30T01:10:38;6.00;99.90
25708;DHT22;13567;61.652;17.100;2022-10-30T01:13:05;6.00;99.90
25708;DHT22;13567;61.652;17.100;2022-10-30T01:15:37;6.00;99.90
25708;DHT22;13567;61.652;17.100;2022-10-30T01:18:15;6.00;99.90
25708;DHT22;13567;61.652;17.100;2022-10-30T01:23:51;6.00;99.90
25708;DHT22;13567;61.652;17.100;2022-10-30T01:40:10;6.10;99.90
25708;DHT22;13567;61.652;17.100;2022-10-30T02:01:59;6.20;99.90
25708;DHT22;13567;61.652;17.100;2022-10-30T02:04:26;6.20;99.90
25708;DHT22;13567;61.652;17.100;2022-10-30T02:06:54;6.20;99.90
25708;DHT22;13567;61.652;17.100;2022-10-30T02:09:21;6.20;99.90
25708;DHT22;13567;61.652;17.100;2022-10-30T02:11:49;6.20;99.90
25708;DHT22;13567;61.652;17.100;2022-10-30T02:14:23;6.30;99.90
25708;DHT22;13567;61.652;17.100;2022-10-30T02:16:53;6.30;99.90
25708;DHT22;13567;61.652;17.100;2022-10-30T02:19:22;6.30;99.90
25708;DHT22;13567;61.652;17.100;2022-10-30T02:21:50;6.30;99.90
25708;DHT22;13567;61.652;17.100;2022-10-30T02:24:17;6.30;99.90
25708;DHT22;13567;61.652;17.100;2022-10-30T02:26:44;6.30;99.90
25708;DHT22;13567;61.652;17.100;2022-10-30T02:29:11;6.30;99.90
25708;DHT22;13567;61.652;17.100;2022-10-30T02:31:38;6.40;99.90
25708;DHT22;13567;61.652;17.100;2022-10-30T02:34:05;6.30;99.90
25708;DHT22;13567;61.652;17.100;2022-10-30T02:36:32;6.30;99.90
25708;DHT22;13567;61.652;17.100;2022-10-30T02:38:59;6.30;99.90
25708;DHT22;13567;61.652;17.100;2022-10-30T02:41:26;6.30;99.90
25708;DHT22;13567;61.652;17.100;2022-10-30T02:43:54;6.40;99.90
25708;DHT22;13567;61.652;17.100;2022-10-30T02:46:21;6.40;99.90
25708;DHT22;13567;61.652;17.100;2022-10-30T02:48:48;6.30;99.90
25708;DHT22;13567;61.652;17.100;2022-10-30T02:51:15;6.30;99.90
25708;DHT22;13567;61.652;17.100;2022-10-30T02:53:42;6.30;99.90
25708;DHT22;13567;61.652;17.100;2022-10-30T02:56:11;6.30;99.90
25708;DHT22;13567;61.652;17.100;2022-10-30T02:58:39;6.30;99.90
25708;DHT22;13567;61.652;17.100;2022-10-30T03:01:12;6.30;99.90
25708;DHT22;13567;61.652;17.100;2022-10-30T03:03:40;6.30;99.90
25708;DHT22;13567;61.652;17.100;2022-10-30T03:06:10;6.30;99.90
25708;DHT22;13567;61.652;17.100;2022-10-30T03:08:38;6.30;99.90
25708;DHT22;13567;61.652;17.100;2022-10-30T03:11:16;6.30;99.90
25708;DHT22;13567;61.652;17.100;2022-10-30T03:13:45;6.30;99.90
25708;DHT22;13567;61.652;17.100;2022-10-30T03:16:22;6.20;99.90
25708;DHT22;13567;61.652;17.100;2022-10-30T03:18:50;6.20;99.90
25708;DHT22;13567;61.652;17.100;2022-10-30T03:21:20;6.20;99.90
25708;DHT22;13567;61.652;17.100;2022-10-30T03:23:47;6.30;99.90
25708;DHT22;13567;61.652;17.100;2022-10-30T03:26:16;6.20;99.90
25708;DHT22;13567;61.652;17.100;2022-10-30T03:28:44;6.20;99.90
25708;DHT22;13567;61.652;17.100;2022-10-30T03:31:13;6.20;99.90
25708;DHT22;13567;61.652;17.100;2022-10-30T03:33:41;6.20;99.90
25708;DHT22;13567;61.652;17.100;2022-10-30T03:36:10;6.20;99.90
25708;DHT22;13567;61.652;17.100;2022-10-30T03:38:37;6.10;99.90
25708;DHT22;13567;61.652;17.100;2022-10-30T03:41:05;6.10;99.90
25708;DHT22;13567;61.652;17.100;2022-10-30T03:43:32;6.10;99.90
25708;DHT22;13567;61.652;17.100;2022-10-30T03:45:59;6.10;99.90
25708;DHT22;13567;61.652;17.100;2022-10-30T03:48:28;6.10;99.90
25708;DHT22;13567;61.652;17.100;2022-10-30T03:50:56;6.10;99.90
25708;DHT22;13567;61.652;17.100;2022-10-30T03:53:24;6.10;99.90
25708;DHT22;13567;61.652;17.100;2022-10-30T03:55:55;6.10;99.90
25708;DHT22;13567;61.652;17.100;2022-10-30T03:58:23;6.00;99.90
25708;DHT22;13567;61.652;17.100;2022-10-30T04:00:50;6.00;99.90
25708;DHT22;13567;61.652;17.100;2022-10-30T04:03:17;6.00;99.90
25708;DHT22;13567;61.652;17.100;2022-10-30T04:05:44;5.90;99.90
25708;DHT22;13567;61.652;17.100;2022-10-30T04:08:12;5.90;99.90
25708;DHT22;13567;61.652;17.100;2022-10-30T04:10:43;5.90;99.90
25708;DHT22;13567;61.652;17.100;2022-10-30T04:13:12;5.90;99.90
25708;DHT22;13567;61.652;17.100;2022-10-30T04:15:40;5.90;99.90
25708;DHT22;13567;61.652;17.100;2022-10-30T04:18:10;5.90;99.90
25708;DHT22;13567;61.652;17.100;2022-10-30T04:20:37;5.80;99.90
25708;DHT22;13567;61.652;17.100;2022-10-30T04:23:06;5.80;99.90
25708;DHT22;13567;61.652;17.100;2022-10-30T04:25:34;5.80;99.90
25708;DHT22;13567;61.652;17.100;2022-10-30T04:28:01;5.70;99.90
25708;DHT22;13567;61.652;17.100;2022-10-30T04:30:29;5.70;99.90
25708;DHT22;13567;61.652;17.100;2022-10-30T04:33:02;5.70;99.90
25708;DHT22;13567;61.652;17.100;2022-10-30T04:35:32;5.70;99.90
25708;DHT22;13567;61.652;17.100;2022-10-30T04:38:10;5.60;99.90
25708;DHT22;13567;61.652;17.100;2022-10-30T04:40:39;5.60;99.90
25708;DHT22;13567;61.652;17.100;2022-10-30T04:43:07;5.60;99.90
25708;DHT22;13567;61.652;17.100;2022-10-30T04:45:35;5.60;99.90
25708;DHT22;13567;61.652;17.100;2022-10-30T04:48:05;5.50;99.90
25708;DHT22;13567;61.652;17.100;2022-10-30T04:50:33;5.50;99.90
25708;DHT22;13567;61.652;17.100;2022-10-30T04:53:02;5.50;99.90
25708;DHT22;13567;61.652;17.100;2022-10-30T04:55:30;5.40;99.90
25708;DHT22;13567;61.652;17.100;2022-10-30T04:57:58;5.40;99.90
25708;DHT22;13567;61.652;17.100;2022-10-30T05:00:26;5.40;99.90
25708;DHT22;13567;61.652;17.100;2022-10-30T05:02:53;5.30;99.90
25708;DHT22;13567;61.652;17.100;2022-10-30T05:05:20;5.20;99.90
25708;DHT22;13567;61.652;17.100;2022-10-30T05:07:47;5.20;99.90
25708;DHT22;13567;61.652;17.100;2022-10-30T05:10:14;5.10;99.90
25708;DHT22;13567;61.652;17.100;2022-10-30T05:12:44;5.10;99.90
25708;DHT22;13567;61.652;17.100;2022-10-30T05:15:12;5.10;99.90
25708;DHT22;13567;61.652;17.100;2022-10-30T05:17:40;5.10;99.90
25708;DHT22;13567;61.652;17.100;2022-10-30T05:20:07;5.00;99.90
25708;DHT22;13567;61.652;17.100;2022-10-30T05:22:35;4.90;99.90
25708;DHT22;13567;61.652;17.100;2022-10-30T05:25:02;4.90;99.90
25708;DHT22;13567;61.652;17.100;2022-10-30T05:27:30;4.90;99.90
25708;DHT22;13567;61.652;17.100;2022-10-30T05:29:57;4.90;99.90
25708;DHT22;13567;61.652;17.100;2022-10-30T05:32:24;4.80;99.90
25708;DHT22;13567;61.652;17.100;2022-10-30T05:34:51;4.80;99.90
25708;DHT22;13567;61.652;17.100;2022-10-30T05:37:18;4.80;99.90
25708;DHT22;13567;61.652;17.100;2022-10-30T05:39:45;4.80;99.90
25708;DHT22;13567;61.652;17.100;2022-10-30T05:42:11;4.80;99.90
25708;DHT22;13567;61.652;17.100;2022-10-30T05:44:39;4.70;99.90
25708;DHT22;13567;61.652;17.100;2022-10-30T05:47:26;4.70;99.90
25708;DHT22;13567;61.652;17.100;2022-10-30T05:49:53;4.60;99.90
25708;DHT22;13567;61.652;17.100;2022-10-30T05:52:20;4.60;99.90
25708;DHT22;13567;61.652;17.100;2022-10-30T05:54:47;4.70;99.90
25708;DHT22;13567;61.652;17.100;2022-10-30T05:57:14;4.70;99.90
25708;DHT22;13567;61.652;17.100;2022-10-30T05:59:41;4.70;99.90
25708;DHT22;13567;61.652;17.100;2022-10-30T06:02:08;4.60;99.90
25708;DHT22;13567;61.652;17.100;2022-10-30T06:04:35;4.50;99.90
25708;DHT22;13567;61.652;17.100;2022-10-30T06:07:02;4.40;99.90
25708;DHT22;13567;61.652;17.100;2022-10-30T06:09:29;4.40;99.90
25708;DHT22;13567;61.652;17.100;2022-10-30T06:11:56;4.30;99.90
25708;DHT22;13567;61.652;17.100;2022-10-30T06:14:24;4.30;99.90
25708;DHT22;13567;61.652;17.100;2022-10-30T06:16:51;4.20;99.90
25708;DHT22;13567;61.652;17.100;2022-10-30T06:19:18;4.10;99.90
25708;DHT22;13567;61.652;17.100;2022-10-30T06:21:45;4.10;99.90
25708;DHT22;13567;61.652;17.100;2022-10-30T06:24:12;4.00;99.90
25708;DHT22;13567;61.652;17.100;2022-10-30T06:26:39;4.00;99.90
25708;DHT22;13567;61.652;17.100;2022-10-30T06:29:07;4.10;99.90
25708;DHT22;13567;61.652;17.100;2022-10-30T06:31:34;4.10;99.90
25708;DHT22;13567;61.652;17.100;2022-10-30T06:34:01;4.20;99.90
25708;DHT22;13567;61.652;17.100;2022-10-30T06:36:28;4.20;99.90
25708;DHT22;13567;61.652;17.100;2022-10-30T06:38:55;4.30;99.90
25708;DHT22;13567;61.652;17.100;2022-10-30T06:41:22;4.40;99.90
25708;DHT22;13567;61.652;17.100;2022-10-30T06:43:55;4.40;99.90
25708;DHT22;13567;61.652;17.100;2022-10-30T06:46:22;4.50;99.90
25708;DHT22;13567;61.652;17.100;2022-10-30T06:48:56;4.60;99.90
25708;DHT22;13567;61.652;17.100;2022-10-30T06:51:23;4.60;99.90
25708;DHT22;13567;61.652;17.100;2022-10-30T06:53:50;4.70;99.90
25708;DHT22;13567;61.652;17.100;2022-10-30T06:56:17;4.70;99.90
25708;DHT22;13567;61.652;17.100;2022-10-30T06:58:44;4.80;99.90
25708;DHT22;13567;61.652;17.100;2022-10-30T07:01:11;4.90;99.90
25708;DHT22;13567;61.652;17.100;2022-10-30T07:03:39;4.90;99.90
25708;DHT22;13567;61.652;17.100;2022-10-30T07:06:06;4.90;99.90
25708;DHT22;13567;61.652;17.100;2022-10-30T07:08:33;4.90;99.90
25708;DHT22;13567;61.652;17.100;2022-10-30T07:11:00;4.90;99.90
25708;DHT22;13567;61.652;17.100;2022-10-30T07:13:27;5.20;99.90
25708;DHT22;13567;61.652;17.100;2022-10-30T07:15:54;6.10;99.90
25708;DHT22;13567;61.652;17.100;2022-10-30T07:18:21;7.30;99.90
25708;DHT22;13567;61.652;17.100;2022-10-30T07:20:53;8.40;99.90
25708;DHT22;13567;61.652;17.100;2022-10-30T07:23:21;8.90;99.90
25708;DHT22;13567;61.652;17.100;2022-10-30T07:25:48;8.60;99.90
25708;DHT22;13567;61.652;17.100;2022-10-30T07:28:15;8.10;99.90
25708;DHT22;13567;61.652;17.100;2022-10-30T07:30:42;7.90;99.90
25708;DHT22;13567;61.652;17.100;2022-10-30T07:33:10;8.00;99.90
25708;DHT22;13567;61.652;17.100;2022-10-30T07:35:37;8.30;99.90
25708;DHT22;13567;61.652;17.100;2022-10-30T07:38:10;8.70;99.90
25708;DHT22;13567;61.652;17.100;2022-10-30T07:40:37;10.00;99.90
25708;DHT22;13567;61.652;17.100;2022-10-30T07:43:05;11.50;99.90
25708;DHT22;13567;61.652;17.100;2022-10-30T07:45:32;12.20;99.20
25708;DHT22;13567;61.652;17.100;2022-10-30T07:47:59;13.20;96.70
25708;DHT22;13567;61.652;17.100;2022-10-30T07:50:27;13.90;94.80
25708;DHT22;13567;61.652;17.100;2022-10-30T07:52:54;14.20;93.00
25708;DHT22;13567;61.652;17.100;2022-10-30T07:55:21;14.30;91.70
25708;DHT22;13567;61.652;17.100;2022-10-30T07:57:48;15.00;91.50
25708;DHT22;13567;61.652;17.100;2022-10-30T08:00:16;14.90;90.90
25708;DHT22;13567;61.652;17.100;2022-10-30T08:02:43;15.30;88.20
25708;DHT22;13567;61.652;17.100;2022-10-30T08:05:10;15.30;87.60
25708;DHT22;13567;61.652;17.100;2022-10-30T08:07:37;15.30;87.40
25708;DHT22;13567;61.652;17.100;2022-10-30T08:10:06;15.00;86.20
25708;DHT22;13567;61.652;17.100;2022-10-30T08:12:34;15.10;88.00
25708;DHT22;13567;61.652;17.100;2022-10-30T08:15:02;13.90;89.50
25708;DHT22;13567;61.652;17.100;2022-10-30T08:17:29;13.60;90.30
25708;DHT22;13567;61.652;17.100;2022-10-30T08:19:56;13.70;91.20
25708;DHT22;13567;61.652;17.100;2022-10-30T08:22:23;13.40;90.90
25708;DHT22;13567;61.652;17.100;2022-10-30T08:24:50;13.30;91.80
25708;DHT22;13567;61.652;17.100;2022-10-30T08:27:17;13.30;91.60
25708;DHT22;13567;61.652;17.100;2022-10-30T08:29:44;13.60;90.60
25708;DHT22;13567;61.652;17.100;2022-10-30T08:32:11;13.80;90.90
25708;DHT22;13567;61.652;17.100;2022-10-30T08:34:38;14.50;90.00
25708;DHT22;13567;61.652;17.100;2022-10-30T08:37:05;15.30;87.50
25708;DHT22;13567;61.652;17.100;2022-10-30T08:39:33;15.90;84.00
25708;DHT22;13567;61.652;17.100;2022-10-30T08:42:00;16.40;81.60
25708;DHT22;13567;61.652;17.100;2022-10-30T08:44:27;17.10;79.30
25708;DHT22;13567;61.652;17.100;2022-10-30T08:46:54;17.10;76.90
25708;DHT22;13567;61.652;17.100;2022-10-30T08:49:21;16.90;77.70
25708;DHT22;13567;61.652;17.100;2022-10-30T08:51:48;17.00;77.60
25708;DHT22;13567;61.652;17.100;2022-10-30T08:54:15;16.10;78.50
25708;DHT22;13567;61.652;17.100;2022-10-30T08:56:42;15.20;82.20
25708;DHT22;13567;61.652;17.100;2022-10-30T08:59:09;15.40;81.80
25708;DHT22;13567;61.652;17.100;2022-10-30T09:01:36;15.50;80.30
25708;DHT22;13567;61.652;17.100;2022-10-30T09:04:03;15.20;80.70
25708;DHT22;13567;61.652;17.100;2022-10-30T09:06:30;15.90;81.30
25708;DHT22;13567;61.652;17.100;2022-10-30T09:08:58;16.70;78.40
25708;DHT22;13567;61.652;17.100;2022-10-30T09:11:25;17.50;73.60
25708;DHT22;13567;61.652;17.100;2022-10-30T09:13:52;18.20;72.10
25708;DHT22;13567;61.652;17.100;2022-10-30T09:16:19;18.60;71.50
25708;DHT22;13567;61.652;17.100;2022-10-30T09:18:46;18.90;69.30
25708;DHT22;13567;61.652;17.100;2022-10-30T09:21:13;18.70;69.50
25708;DHT22;13567;61.652;17.100;2022-10-30T09:23:42;19.20;67.30
25708;DHT22;13567;61.652;17.100;2022-10-30T09:26:10;19.80;65.30
25708;DHT22;13567;61.652;17.100;2022-10-30T09:28:41;20.30;64.50
25708;DHT22;13567;61.652;17.100;2022-10-30T09:31:08;20.30;62.30
25708;DHT22;13567;61.652;17.100;2022-10-30T09:33:35;19.90;61.60
25708;DHT22;13567;61.652;17.100;2022-10-30T09:36:02;20.10;61.50
25708;DHT22;13567;61.652;17.100;2022-10-30T09:38:29;18.60;62.90
25708;DHT22;13567;61.652;17.100;2022-10-30T09:46:31;19.60;64.10
25708;DHT22;13567;61.652;17.100;2022-10-30T09:50:00;20.20;60.50
25708;DHT22;13567;61.652;17.100;2022-10-30T09:55:29;19.20;59.80
25708;DHT22;13567;61.652;17.100;2022-10-30T10:01:16;19.30;62.00
25708;DHT22;13567;61.652;17.100;2022-10-30T10:03:51;19.50;60.10
25708;DHT22;13567;61.652;17.100;2022-10-30T10:06:22;20.60;58.70
25708;DHT22;13567;61.652;17.100;2022-10-30T10:09:04;20.10;58.00
25708;DHT22;13567;61.652;17.100;2022-10-30T10:11:35;18.90;59.60
25708;DHT22;13567;61.652;17.100;2022-10-30T10:14:16;16.30;63.90
25708;DHT22;13567;61.652;17.100;2022-10-30T10:16:48;13.40;70.80
25708;DHT22;13567;61.652;17.100;2022-10-30T10:19:29;11.80;76.60
25708;DHT22;13567;61.652;17.100;2022-10-30T10:22:02;11.50;81.00
25708;DHT22;13567;61.652;17.100;2022-10-30T10:24:32;11.70;80.60
25708;DHT22;13567;61.652;17.100;2022-10-30T10:37:51;20.70;55.60
25708;DHT22;13567;61.652;17.100;2022-10-30T10:40:49;21.90;52.50
25708;DHT22;13567;61.652;17.100;2022-10-30T10:43:58;20.50;52.70
25708;DHT22;13567;61.652;17.100;2022-10-30T10:51:41;21.20;52.50
25708;DHT22;13567;61.652;17.100;2022-10-30T10:56:39;21.00;52.90
25708;DHT22;13567;61.652;17.100;2022-10-30T11:02:28;21.30;51.20
25708;DHT22;13567;61.652;17.100;2022-10-30T11:07:58;21.30;50.60
25708;DHT22;13567;61.652;17.100;2022-10-30T11:10:27;22.10;51.10
25708;DHT22;13567;61.652;17.100;2022-10-30T11:12:54;22.40;49.20
25708;DHT22;13567;61.652;17.100;2022-10-30T11:18:03;20.80;51.20
25708;DHT22;13567;61.652;17.100;2022-10-30T11:21:00;22.40;49.70
25708;DHT22;13567;61.652;17.100;2022-10-30T11:26:00;22.40;48.30
25708;DHT22;13567;61.652;17.100;2022-10-30T11:28:35;22.40;46.90
25708;DHT22;13567;61.652;17.100;2022-10-30T11:31:28;21.30;48.80
25708;DHT22;13567;61.652;17.100;2022-10-30T11:36:59;21.80;46.90
25708;DHT22;13567;61.652;17.100;2022-10-30T11:39:33;22.40;46.90
25708;DHT22;13567;61.652;17.100;2022-10-30T11:42:11;22.20;46.40
25708;DHT22;13567;61.652;17.100;2022-10-30T11:44:42;22.00;47.20
25708;DHT22;13567;61.652;17.100;2022-10-30T11:47:12;20.90;47.20
25708;DHT22;13567;61.652;17.100;2022-10-30T11:49:45;20.10;49.20
25708;DHT22;13567;61.652;17.100;2022-10-30T11:52:16;19.90;49.30
25708;DHT22;13567;61.652;17.100;2022-10-30T11:54:47;19.90;50.20
25708;DHT22;13567;61.652;17.100;2022-10-30T11:57:37;20.20;49.20
25708;DHT22;13567;61.652;17.100;2022-10-30T12:00:14;21.10;48.20
25708;DHT22;13567;61.652;17.100;2022-10-30T12:02:43;21.90;45.20
25708;DHT22;13567;61.652;17.100;2022-10-30T12:13:20;20.00;46.90
25708;DHT22;13567;61.652;17.100;2022-10-30T12:18:33;20.00;46.30
25708;DHT22;13567;61.652;17.100;2022-10-30T12:21:01;20.60;46.30
25708;DHT22;13567;61.652;17.100;2022-10-30T12:23:29;21.40;45.40
25708;DHT22;13567;61.652;17.100;2022-10-30T12:25:59;21.80;45.10
25708;DHT22;13567;61.652;17.100;2022-10-30T12:28:29;22.10;43.80
25708;DHT22;13567;61.652;17.100;2022-10-30T12:31:00;20.90;45.40
25708;DHT22;13567;61.652;17.100;2022-10-30T12:33:36;20.50;47.10
25708;DHT22;13567;61.652;17.100;2022-10-30T12:36:26;20.90;47.00
25708;DHT22;13567;61.652;17.100;2022-10-30T12:38:58;19.80;46.80
25708;DHT22;13567;61.652;17.100;2022-10-30T12:41:50;18.50;48.30
25708;DHT22;13567;61.652;17.100;2022-10-30T12:47:07;17.70;50.30
25708;DHT22;13567;61.652;17.100;2022-10-30T12:50:02;17.80;51.30
25708;DHT22;13567;61.652;17.100;2022-10-30T12:53:06;17.20;52.90
25708;DHT22;13567;61.652;17.100;2022-10-30T12:55:50;16.40;54.80
25708;DHT22;13567;61.652;17.100;2022-10-30T12:58:21;16.10;56.70
25708;DHT22;13567;61.652;17.100;2022-10-30T13:01:00;15.00;59.20
25708;DHT22;13567;61.652;17.100;2022-10-30T13:03:36;14.30;61.30
25708;DHT22;13567;61.652;17.100;2022-10-30T13:06:14;14.10;62.80
25708;DHT22;13567;61.652;17.100;2022-10-30T13:11:40;13.20;65.70
25708;DHT22;13567;61.652;17.100;2022-10-30T13:14:14;13.10;66.10
25708;DHT22;13567;61.652;17.100;2022-10-30T13:16:42;13.00;66.90
25708;DHT22;13567;61.652;17.100;2022-10-30T13:19:10;12.90;66.40
25708;DHT22;13567;61.652;17.100;2022-10-30T13:27:23;14.30;63.30
25708;DHT22;13567;61.652;17.100;2022-10-30T13:30:15;14.50;63.20
25708;DHT22;13567;61.652;17.100;2022-10-30T13:33:05;15.10;62.70
25708;DHT22;13567;61.652;17.100;2022-10-30T13:52:13;14.70;63.30
25708;DHT22;13567;61.652;17.100;2022-10-30T13:54:43;14.40;62.90
25708;DHT22;13567;61.652;17.100;2022-10-30T14:00:15;13.10;66.70
25708;DHT22;13567;61.652;17.100;2022-10-30T14:03:12;12.50;68.90
25708;DHT22;13567;61.652;17.100;2022-10-30T14:10:56;11.60;73.30
25708;DHT22;13567;61.652;17.100;2022-10-30T14:13:55;11.10;75.60
25708;DHT22;13567;61.652;17.100;2022-10-30T14:16:39;10.60;78.40
25708;DHT22;13567;61.652;17.100;2022-10-30T14:19:08;10.20;79.20
25708;DHT22;13567;61.652;17.100;2022-10-30T14:21:55;10.10;81.50
25708;DHT22;13567;61.652;17.100;2022-10-30T14:24:27;10.10;82.00
25708;DHT22;13567;61.652;17.100;2022-10-30T14:39:52;10.50;82.80
25708;DHT22;13567;61.652;17.100;2022-10-30T14:42:35;10.30;83.70
25708;DHT22;13567;61.652;17.100;2022-10-30T14:50:32;8.90;88.40
25708;DHT22;13567;61.652;17.100;2022-10-30T14:58:37;7.90;91.50
25708;DHT22;13567;61.652;17.100;2022-10-30T15:01:26;7.70;92.40
25708;DHT22;13567;61.652;17.100;2022-10-30T15:04:07;7.50;93.60
25708;DHT22;13567;61.652;17.100;2022-10-30T15:06:42;7.40;93.90
25708;DHT22;13567;61.652;17.100;2022-10-30T15:14:47;7.00;96.80
25708;DHT22;13567;61.652;17.100;2022-10-30T15:20:01;6.80;97.30
25708;DHT22;13567;61.652;17.100;2022-10-30T15:22:29;6.70;98.30
25708;DHT22;13567;61.652;17.100;2022-10-30T15:24:58;6.70;99.10
25708;DHT22;13567;61.652;17.100;2022-10-30T15:27:25;6.60;99.70
25708;DHT22;13567;61.652;17.100;2022-10-30T15:29:55;6.60;99.70
25708;DHT22;13567;61.652;17.100;2022-10-30T15:32:25;6.50;99.90
25708;DHT22;13567;61.652;17.100;2022-10-30T15:35:00;6.30;99.90
25708;DHT22;13567;61.652;17.100;2022-10-30T15:37:31;6.20;99.90
25708;DHT22;13567;61.652;17.100;2022-10-30T15:42:41;6.00;99.90
25708;DHT22;13567;61.652;17.100;2022-10-30T15:50:33;5.50;99.90
25708;DHT22;13567;61.652;17.100;2022-10-30T15:53:01;5.50;99.90
25708;DHT22;13567;61.652;17.100;2022-10-30T15:55:29;5.40;99.90
25708;DHT22;13567;61.652;17.100;2022-10-30T15:57:59;5.30;99.90
25708;DHT22;13567;61.652;17.100;2022-10-30T16:00:33;5.30;99.90
25708;DHT22;13567;61.652;17.100;2022-10-30T16:03:16;5.20;99.90
25708;DHT22;13567;61.652;17.100;2022-10-30T16:05:43;5.20;99.90
25708;DHT22;13567;61.652;17.100;2022-10-30T16:08:20;5.20;99.90
25708;DHT22;13567;61.652;17.100;2022-10-30T16:10:50;5.20;99.90
25708;DHT22;13567;61.652;17.100;2022-10-30T16:13:24;5.20;99.90
25708;DHT22;13567;61.652;17.100;2022-10-30T16:15:53;5.10;99.90
25708;DHT22;13567;61.652;17.100;2022-10-30T16:18:30;4.90;99.90
25708;DHT22;13567;61.652;17.100;2022-10-30T16:21:05;4.70;99.90
25708;DHT22;13567;61.652;17.100;2022-10-30T16:24:02;4.70;99.90
25708;DHT22;13567;61.652;17.100;2022-10-30T16:26:35;4.50;99.90
25708;DHT22;13567;61.652;17.100;2022-10-30T16:31:44;4.40;99.90
25708;DHT22;13567;61.652;17.100;2022-10-30T16:34:29;4.30;99.90
25708;DHT22;13567;61.652;17.100;2022-10-30T16:37:04;4.20;99.90
25708;DHT22;13567;61.652;17.100;2022-10-30T16:39:32;4.00;99.90
25708;DHT22;13567;61.652;17.100;2022-10-30T16:42:00;3.90;99.90
25708;DHT22;13567;61.652;17.100;2022-10-30T16:44:28;3.90;99.90
25708;DHT22;13567;61.652;17.100;2022-10-30T16:49:29;3.90;99.90
25708;DHT22;13567;61.652;17.100;2022-10-30T16:52:02;3.90;99.90
25708;DHT22;13567;61.652;17.100;2022-10-30T16:54:37;3.90;99.90
25708;DHT22;13567;61.652;17.100;2022-10-30T16:57:16;3.90;99.90
25708;DHT22;13567;61.652;17.100;2022-10-30T16:59:48;3.80;99.90
25708;DHT22;13567;61.652;17.100;2022-10-30T17:02:29;3.80;99.90
25708;DHT22;13567;61.652;17.100;2022-10-30T17:05:19;3.80;99.90
25708;DHT22;13567;61.652;17.100;2022-10-30T17:08:05;3.70;99.90
25708;DHT22;13567;61.652;17.100;2022-10-30T17:10:44;3.70;99.90
25708;DHT22;13567;61.652;17.100;2022-10-30T17:13:39;3.60;99.90
25708;DHT22;13567;61.652;17.100;2022-10-30T17:21:58;3.30;99.90
25708;DHT22;13567;61.652;17.100;2022-10-30T17:24:31;3.20;99.90
25708;DHT22;13567;61.652;17.100;2022-10-30T17:27:04;3.20;99.90
25708;DHT22;13567;61.652;17.100;2022-10-30T17:34:38;3.30;99.90
25708;DHT22;13567;61.652;17.100;2022-10-30T17:37:05;3.30;99.90
25708;DHT22;13567;61.652;17.100;2022-10-30T17:39:32;3.30;99.90
25708;DHT22;13567;61.652;17.100;2022-10-30T17:41:59;3.20;99.90
25708;DHT22;13567;61.652;17.100;2022-10-30T17:44:26;3.20;99.90
25708;DHT22;13567;61.652;17.100;2022-10-30T17:46:54;3.10;99.90
25708;DHT22;13567;61.652;17.100;2022-10-30T17:49:27;3.10;99.90
25708;DHT22;13567;61.652;17.100;2022-10-30T17:51:55;3.10;99.90
25708;DHT22;13567;61.652;17.100;2022-10-30T17:54:22;3.10;99.90
25708;DHT22;13567;61.652;17.100;2022-10-30T17:56:49;3.20;99.90
25708;DHT22;13567;61.652;17.100;2022-10-30T17:59:16;3.30;99.90
25708;DHT22;13567;61.652;17.100;2022-10-30T18:01:43;3.30;99.90
25708;DHT22;13567;61.652;17.100;2022-10-30T18:04:13;3.10;99.90
25708;DHT22;13567;61.652;17.100;2022-10-30T18:06:47;3.00;99.90
25708;DHT22;13567;61.652;17.100;2022-10-30T18:09:14;2.90;99.90
25708;DHT22;13567;61.652;17.100;2022-10-30T18:11:41;2.80;99.90
25708;DHT22;13567;61.652;17.100;2022-10-30T18:14:09;2.80;99.90
25708;DHT22;13567;61.652;17.100;2022-10-30T18:16:37;2.70;99.90
25708;DHT22;13567;61.652;17.100;2022-10-30T18:19:08;2.70;99.90
25708;DHT22;13567;61.652;17.100;2022-10-30T18:21:36;2.80;99.90
25708;DHT22;13567;61.652;17.100;2022-10-30T18:24:11;2.70;99.90
25708;DHT22;13567;61.652;17.100;2022-10-30T18:26:38;2.70;99.90
25708;DHT22;13567;61.652;17.100;2022-10-30T18:29:07;2.60;99.90
25708;DHT22;13567;61.652;17.100;2022-10-30T18:31:34;2.50;99.90
25708;DHT22;13567;61.652;17.100;2022-10-30T18:34:01;2.40;99.90
25708;DHT22;13567;61.652;17.100;2022-10-30T18:36:29;2.40;99.90
25708;DHT22;13567;61.652;17.100;2022-10-30T18:38:56;2.30;99.90
25708;DHT22;13567;61.652;17.100;2022-10-30T18:41:30;2.20;99.90
25708;DHT22;13567;61.652;17.100;2022-10-30T18:43:58;2.10;99.90
25708;DHT22;13567;61.652;17.100;2022-10-30T18:46:32;2.00;99.90
25708;DHT22;13567;61.652;17.100;2022-10-30T18:48:59;2.00;99.90
25708;DHT22;13567;61.652;17.100;2022-10-30T18:51:27;2.10;99.90